^^
Your Local Weather - Clay, NY Station Historical Data
 
Daily Summary for August 21, 2018 Units:  English    Metric   Both
« Previous Day
Next Day »
Daily Weekly Monthly Yearly Custom
  Current: High: Low: Average:
Temperature: 72.5 °F 74.7 °F 62.7 °F 69 °F
Dew Point: 65.6 °F 65.8 °F 59.7 °F 63.3 °F
Humidity: 79% 91% 72% 82%
Wind Speed: 4mph 7mph 0mph 2mph
Wind Gust: 5mph 12mph - -
WindSSE - - SSE
Pressure: 29.74 in 30.02 in 29.74 in -
Precipitation: 0 in      
Historical Graphs
 
 
Tabular Data for August 21, 2018
Time Temperature Dew Point Pressure Wind Wind Speed Wind Gust Humidity Rainfall Rate (Hourly) solar
00:04 65.9 °F 61.6 °F 30.02 in Calm     86% 0 in 0.00 W/m2
00:08 65.8 °F 61.5 °F 30.02 in Calm     86% 0 in 0.00 W/m2
00:14 65.5 °F 61.2 °F 30.02 in Calm     86% 0 in 0.00 W/m2
00:18 65.4 °F 61.4 °F 30.01 in Calm     87% 0 in 0.00 W/m2
00:24 65.4 °F 61.4 °F 30.01 in Calm     87% 0 in 0.00 W/m2
00:28 65.5 °F 61.2 °F 30.01 in Calm     86% 0 in 0.00 W/m2
00:34 65.6 °F 61.3 °F 30.01 in Calm     86% 0 in 0.00 W/m2
00:38 65.5 °F 61.2 °F 30.02 in Calm     86% 0 in 0.00 W/m2
00:44 65.5 °F 61.2 °F 30.02 in Calm     86% 0 in 0.00 W/m2
00:48 65.5 °F 61.2 °F 30.02 in Calm     86% 0 in 0.00 W/m2
00:54 65.3 °F 61 °F 30.02 in Calm     86% 0 in 0.00 W/m2
00:58 65.2 °F 60.9 °F 30.02 in Calm     86% 0 in 0.00 W/m2
01:04 65 °F 60.7 °F 30.01 in Calm   1 mph 86% 0 in 0.00 W/m2
01:08 65 °F 61 °F 30.01 in Calm   1 mph 87% 0 in 0.00 W/m2
01:14 65 °F 61 °F 30.01 in ENE 1 mph 1 mph 87% 0 in 0.00 W/m2
01:18 65.1 °F 60.8 °F 30.00 in ENE 1 mph 1 mph 86% 0 in 0.00 W/m2
01:24 65.2 °F 60.9 °F 30.00 in Calm   1 mph 86% 0 in 0.00 W/m2
01:28 65.3 °F 61 °F 30.00 in Calm   1 mph 86% 0 in 0.00 W/m2
01:34 65.2 °F 60.9 °F 30.00 in Calm   2 mph 86% 0 in 0.00 W/m2
01:38 65.1 °F 60.8 °F 30.00 in Calm   2 mph 86% 0 in 0.00 W/m2
01:44 64.9 °F 60.6 °F 30.00 in Calm   2 mph 86% 0 in 0.00 W/m2
01:48 64.8 °F 60.5 °F 30.00 in Calm   2 mph 86% 0 in 0.00 W/m2
01:54 64.7 °F 60.7 °F 30.00 in Calm     87% 0 in 0.00 W/m2
01:58 64.6 °F 60.6 °F 30.00 in Calm     87% 0 in 0.00 W/m2
02:04 64.4 °F 60.4 °F 30.00 in Calm     87% 0 in 0.00 W/m2
02:08 64.3 °F 60.3 °F 30.00 in Calm     87% 0 in 0.00 W/m2
02:14 64.3 °F 60.7 °F 30.00 in Calm   2 mph 88% 0 in 0.00 W/m2
02:18 64.2 °F 60.6 °F 30.00 in Calm   2 mph 88% 0 in 0.00 W/m2
02:24 64.1 °F 60.5 °F 29.99 in Calm     88% 0 in 0.00 W/m2
02:28 64.1 °F 60.5 °F 29.99 in Calm     88% 0 in 0.00 W/m2
02:34 64.1 °F 60.5 °F 29.99 in Calm     88% 0 in 0.00 W/m2
02:38 64.1 °F 60.5 °F 30.00 in Calm     88% 0 in 0.00 W/m2
02:44 64 °F 60.4 °F 30.00 in Calm     88% 0 in 0.00 W/m2
02:48 63.9 °F 60.3 °F 29.99 in Calm   1 mph 88% 0 in 0.00 W/m2
02:54 63.8 °F 60.5 °F 29.99 in Calm     89% 0 in 0.00 W/m2
02:58 63.8 °F 60.5 °F 29.99 in ENE 1 mph 1 mph 89% 0 in 0.00 W/m2
03:04 63.8 °F 60.5 °F 29.99 in ENE 1 mph 1 mph 89% 0 in 0.00 W/m2
03:08 63.9 °F 60.6 °F 29.99 in Calm   1 mph 89% 0 in 0.00 W/m2
03:14 63.8 °F 60.5 °F 29.99 in Calm   1 mph 89% 0 in 0.00 W/m2
03:18 63.8 °F 60.5 °F 29.99 in Calm   1 mph 89% 0 in 0.00 W/m2
03:24 63.7 °F 60.7 °F 29.99 in ENE 1 mph 1 mph 90% 0 in 0.00 W/m2
03:28 63.6 °F 60.6 °F 29.99 in Calm   2 mph 90% 0 in 0.00 W/m2
03:34 63.5 °F 60.2 °F 29.99 in Calm     89% 0 in 0.00 W/m2
03:38 63.3 °F 60 °F 29.99 in Calm     89% 0 in 0.00 W/m2
03:44 63.2 °F 60.2 °F 29.99 in Calm     90% 0 in 0.00 W/m2
03:48 63.1 °F 60.1 °F 29.99 in Calm     90% 0 in 0.00 W/m2
03:54 63 °F 60 °F 29.98 in Calm     90% 0 in 0.00 W/m2
03:58 62.9 °F 59.9 °F 29.98 in Calm     90% 0 in 0.00 W/m2
04:04 62.8 °F 59.8 °F 29.98 in Calm     90% 0 in 0.00 W/m2
04:08 62.7 °F 59.7 °F 29.98 in Calm     90% 0 in 0.00 W/m2
04:14 62.7 °F 60 °F 29.98 in Calm     91% 0 in 0.00 W/m2
04:18 62.8 °F 60.1 °F 29.98 in Calm     91% 0 in 0.00 W/m2
04:24 63 °F 60.3 °F 29.97 in Calm     91% 0 in 0.00 W/m2
04:28 63.1 °F 60.4 °F 29.97 in Calm     91% 0 in 0.00 W/m2
04:34 63.3 °F 60.6 °F 29.98 in Calm     91% 0 in 0.00 W/m2
04:38 63.4 °F 60.7 °F 29.98 in Calm     91% 0 in 0.00 W/m2
04:44 63.4 °F 60.7 °F 29.98 in Calm     91% 0 in 0.00 W/m2
04:48 63.3 °F 60.6 °F 29.98 in Calm     91% 0 in 0.00 W/m2
04:54 63.2 °F 60.5 °F 29.98 in Calm     91% 0 in 0.00 W/m2
04:58 63.2 °F 60.5 °F 29.97 in Calm     91% 0 in 0.00 W/m2
05:04 63.3 °F 60.6 °F 29.97 in Calm   2 mph 91% 0 in 0.00 W/m2
05:08 63.3 °F 60.6 °F 29.97 in Calm   2 mph 91% 0 in 0.00 W/m2
05:14 63.3 °F 60.6 °F 29.97 in Calm     91% 0 in 0.00 W/m2
05:18 63.3 °F 60.6 °F 29.97 in Calm     91% 0 in 0.00 W/m2
05:24 63.3 °F 60.6 °F 29.97 in Calm   1 mph 91% 0 in 0.00 W/m2
05:28 63.4 °F 60.7 °F 29.97 in Calm   1 mph 91% 0 in 0.00 W/m2
05:34 63.5 °F 60.8 °F 29.97 in Calm   2 mph 91% 0 in 0.00 W/m2
05:38 63.8 °F 61.1 °F 29.96 in ESE 1 mph 2 mph 91% 0 in 0.00 W/m2
05:44 64 °F 61.3 °F 29.96 in Calm   1 mph 91% 0 in 0.00 W/m2
05:48 64.1 °F 61.4 °F 29.96 in Calm   1 mph 91% 0 in 0.00 W/m2
05:54 64.2 °F 61.2 °F 29.96 in Calm   1 mph 90% 0 in 0.00 W/m2
05:58 64.5 °F 61.5 °F 29.96 in Calm   1 mph 90% 0 in 0.00 W/m2
06:04 64.6 °F 61.6 °F 29.96 in Calm     90% 0 in 0.00 W/m2
06:08 64.8 °F 61.8 °F 29.96 in Calm     90% 0 in 0.00 W/m2
06:14 64.9 °F 61.6 °F 29.96 in Calm     89% 0 in 0.00 W/m2
06:18 65 °F 61.7 °F 29.96 in ENE 1 mph 1 mph 89% 0 in 0.00 W/m2
06:24 65 °F 61.7 °F 29.96 in Calm     89% 0 in 0.00 W/m2
06:28 65.1 °F 61.8 °F 29.96 in Calm   2 mph 89% 0 in 0.00 W/m2
06:32 65.2 °F 61.6 °F 29.96 in Calm     88% 0 in 5.00 W/m2
06:38 65.2 °F 61.6 °F 29.96 in Calm     88% 0 in 5.00 W/m2
06:44 65.4 °F 61.8 °F 29.96 in Calm     88% 0 in 5.00 W/m2
06:48 65.5 °F 61.9 °F 29.96 in Calm   1 mph 88% 0 in 7.00 W/m2
06:54 65.6 °F 61.9 °F 29.96 in Calm     88% 0 in 12.00 W/m2
06:58 65.7 °F 62 °F 29.95 in ENE 1 mph 3 mph 88% 0 in 19.00 W/m2
07:04 65.8 °F 62.1 °F 29.96 in Calm   1 mph 88% 0 in 21.00 W/m2
07:08 66 °F 62 °F 29.96 in Calm   1 mph 87% 0 in 14.00 W/m2
07:14 66.2 °F 62.2 °F 29.96 in Calm     87% 0 in 19.00 W/m2
07:18 66.3 °F 62.3 °F 29.96 in Calm     87% 0 in 26.00 W/m2
07:24 66.4 °F 62.4 °F 29.96 in Calm     87% 0 in 25.00 W/m2
07:28 66.6 °F 62.6 °F 29.96 in Calm     87% 0 in 28.00 W/m2
07:34 66.7 °F 62.7 °F 29.96 in Calm   1 mph 87% 0 in 40.00 W/m2
07:38 66.9 °F 62.9 °F 29.96 in Calm   1 mph 87% 0 in 42.00 W/m2
07:44 67.1 °F 62.8 °F 29.96 in Calm     86% 0 in 23.00 W/m2
07:48 67.2 °F 62.9 °F 29.96 in Calm     86% 0 in 19.00 W/m2
07:54 67.2 °F 62.9 °F 29.96 in Calm     86% 0 in 30.00 W/m2
07:58 67.3 °F 63 °F 29.96 in Calm   1 mph 86% 0 in 46.00 W/m2
08:04 67.5 °F 63.2 °F 29.96 in Calm     86% 0 in 53.00 W/m2
08:08 67.5 °F 63.2 °F 29.95 in Calm     86% 0 in 42.00 W/m2
08:14 67.7 °F 63 °F 29.95 in Calm   2 mph 85% 0 in 79.00 W/m2
08:18 67.9 °F 63.2 °F 29.95 in East 1 mph 2 mph 85% 0 in 95.00 W/m2
08:24 68.2 °F 63.5 °F 29.95 in Calm   3 mph 85% 0 in 118.00 W/m2
08:28 68.5 °F 63.5 °F 29.94 in ENE 1 mph 3 mph 84% 0 in 132.00 W/m2
08:34 68.8 °F 63.4 °F 29.94 in East 1 mph 1 mph 83% 0 in 158.00 W/m2
08:38 69.1 °F 63.7 °F 29.94 in SE 1 mph 1 mph 83% 0 in 174.00 W/m2
08:44 69.4 °F 64 °F 29.94 in SE 1 mph 1 mph 83% 0 in 192.00 W/m2
08:48 69.7 °F 64 °F 29.94 in Calm   1 mph 82% 0 in 185.00 W/m2
08:54 70 °F 64.2 °F 29.94 in SSE 1 mph 3 mph 82% 0 in 183.00 W/m2
08:58 70.2 °F 64.1 °F 29.94 in SSE 1 mph 4 mph 81% 0 in 181.00 W/m2
09:04 70.3 °F 63.8 °F 29.94 in SSE 2 mph 3 mph 80% 0 in 244.00 W/m2
09:08 70.5 °F 64 °F 29.94 in SE 2 mph 5 mph 80% 0 in 241.00 W/m2
09:14 70.8 °F 64.3 °F 29.94 in SE 1 mph 1 mph 80% 0 in 288.00 W/m2
09:18 71.2 °F 64.4 °F 29.94 in ENE 1 mph 1 mph 79% 0 in 297.00 W/m2
09:24 71.6 °F 64.7 °F 29.93 in South 1 mph 6 mph 79% 0 in 276.00 W/m2
09:28 71.8 °F 64.6 °F 29.93 in SE 2 mph 6 mph 78% 0 in 199.00 W/m2
09:34 71.8 °F 64.9 °F 29.93 in SSE 2 mph 2 mph 79% 0 in 211.00 W/m2
09:38 71.8 °F 64.9 °F 29.93 in ESE 1 mph 2 mph 79% 0 in 179.00 W/m2
09:44 71.6 °F 64.4 °F 29.93 in SSE 1 mph 8 mph 78% 0 in 118.00 W/m2
09:48 71.5 °F 64.3 °F 29.93 in SSE 2 mph 8 mph 78% 0 in 83.00 W/m2
09:54 71.4 °F 64.2 °F 29.93 in SE 2 mph 5 mph 78% 0 in 100.00 W/m2
09:58 71.5 °F 64.3 °F 29.93 in SSE 2 mph 5 mph 78% 0 in 165.00 W/m2
10:04 71.7 °F 64.1 °F 29.93 in SSE 2 mph 2 mph 77% 0 in 146.00 W/m2
10:08 71.8 °F 64.2 °F 29.93 in SE 2 mph 3 mph 77% 0 in 95.00 W/m2
10:14 71.9 °F 64.3 °F 29.92 in SE 1 mph 2 mph 77% 0 in 84.00 W/m2
10:18 71.8 °F 64.6 °F 29.92 in SE 1 mph 2 mph 78% 0 in 76.00 W/m2
10:24 71.7 °F 64.5 °F 29.92 in Calm   3 mph 78% 0 in 58.00 W/m2
10:28 71.5 °F 63.9 °F 29.92 in SE 1 mph 4 mph 77% 0 in 60.00 W/m2
10:34 71.5 °F 63.9 °F 29.92 in SW 2 mph 2 mph 77% 0 in 86.00 W/m2
10:38 71.5 °F 64.3 °F 29.92 in SSE 2 mph 2 mph 78% 0 in 93.00 W/m2
10:44 71.4 °F 64.5 °F 29.91 in SE 1 mph 1 mph 79% 0 in 86.00 W/m2
10:48 71.4 °F 64.5 °F 29.91 in SE 1 mph 1 mph 79% 0 in 104.00 W/m2
10:54 71.5 °F 65 °F 29.91 in Calm   1 mph 80% 0 in 146.00 W/m2
10:58 71.6 °F 65.1 °F 29.91 in Calm   1 mph 80% 0 in 127.00 W/m2
11:04 71.7 °F 64.8 °F 29.91 in Calm   4 mph 79% 0 in 162.00 W/m2
11:08 71.9 °F 65 °F 29.91 in SE 1 mph 4 mph 79% 0 in 221.00 W/m2
11:14 72.3 °F 65.1 °F 29.91 in South 2 mph 4 mph 78% 0 in 301.00 W/m2
11:18 72.8 °F 65.2 °F 29.91 in SE 2 mph 5 mph 77% 0 in 278.00 W/m2
11:24 73.3 °F 64.9 °F 29.90 in SSE 3 mph 4 mph 75% 0 in 295.00 W/m2
11:28 73.3 °F 64.5 °F 29.90 in South 3 mph 4 mph 74% 0 in 315.00 W/m2
11:34 73.4 °F 64.2 °F 29.90 in SSE 4 mph 7 mph 73% 0 in 241.00 W/m2
11:38 73.2 °F 64 °F 29.90 in South 5 mph 7 mph 73% 0 in 301.00 W/m2
11:44 73.5 °F 64.3 °F 29.90 in SSE 5 mph 6 mph 73% 0 in 304.00 W/m2
11:48 73.7 °F 64.1 °F 29.90 in SE 4 mph 6 mph 72% 0 in 204.00 W/m2
11:54 73.5 °F 64.3 °F 29.90 in SSE 4 mph 5 mph 73% 0 in 123.00 W/m2
11:58 73.3 °F 64.1 °F 29.89 in SE 3 mph 6 mph 73% 0 in 114.00 W/m2
12:04 73.1 °F 63.9 °F 29.89 in South 4 mph 9 mph 73% 0 in 121.00 W/m2
12:08 73 °F 63.8 °F 29.89 in ESE 5 mph 9 mph 73% 0 in 171.00 W/m2
12:14 73.1 °F 64.3 °F 29.89 in SSE 4 mph 8 mph 74% 0 in 178.00 W/m2
12:18 73.1 °F 63.9 °F 29.89 in SE 4 mph 8 mph 73% 0 in 197.00 W/m2
12:24 73.2 °F 64 °F 29.88 in SSE 4 mph 5 mph 73% 0 in 206.00 W/m2
12:28 73.4 °F 64.2 °F 29.88 in South 3 mph 5 mph 73% 0 in 267.00 W/m2
12:34 73.6 °F 64.4 °F 29.88 in SSE 4 mph 5 mph 73% 0 in 241.00 W/m2
12:38 73.9 °F 64.7 °F 29.88 in South 4 mph 5 mph 73% 0 in 279.00 W/m2
12:44 74.1 °F 64.9 °F 29.88 in SE 4 mph 8 mph 73% 0 in 288.00 W/m2
12:48 74.2 °F 65 °F 29.87 in South 5 mph 8 mph 73% 0 in 387.00 W/m2
12:54 74.6 °F 65 °F 29.87 in SE 4 mph 9 mph 72% 0 in 255.00 W/m2
12:58 74.7 °F 65.1 °F 29.86 in SE 4 mph 9 mph 72% 0 in 195.00 W/m2
13:04 74.7 °F 65.1 °F 29.86 in SSE 3 mph 4 mph 72% 0 in 188.00 W/m2
13:08 74.6 °F 65 °F 29.86 in South 3 mph 4 mph 72% 0 in 204.00 W/m2
13:14 74.5 °F 64.9 °F 29.86 in South 4 mph 5 mph 72% 0 in 148.00 W/m2
13:18 74.5 °F 65.3 °F 29.86 in South 3 mph 5 mph 73% 0 in 93.00 W/m2
13:24 74.3 °F 65.1 °F 29.86 in SSE 3 mph 4 mph 73% 0 in 88.00 W/m2
13:28 74.2 °F 65 °F 29.86 in SSW 3 mph 8 mph 73% 0 in 83.00 W/m2
13:34 74.1 °F 64.9 °F 29.86 in SSW 4 mph 5 mph 73% 0 in 54.00 W/m2
13:38 74 °F 64.8 °F 29.86 in SW 4 mph 5 mph 73% 0 in 58.00 W/m2
13:44 73.7 °F 64.1 °F 29.86 in SSW 5 mph 10 mph 72% 0 in 90.00 W/m2
13:48 73.5 °F 63.9 °F 29.86 in SSE 7 mph 10 mph 72% 0 in 113.00 W/m2
13:54 72.9 °F 64.5 °F 29.86 in SSW 7 mph 8 mph 75% 0 in 160.00 W/m2
13:58 72.4 °F 64.4 °F 29.86 in SSE 7 mph 8 mph 76% 0 in 162.00 W/m2
14:04 72.1 °F 64.5 °F 29.85 in SSE 6 mph 9 mph 77% 0 in 97.00 W/m2
14:08 71.4 °F 64.5 °F 29.85 in South 6 mph 11 mph 79% 0 in 100.00 W/m2
14:14 70.5 °F 64.4 °F 29.85 in SE 6 mph 7 mph 81% 0 in 84.00 W/m2
14:18 70 °F 64.2 °F 29.85 in South 5 mph 9 mph 82% 0 in 65.00 W/m2
14:24 69.6 °F 64.2 °F 29.85 in SE 5 mph 10 mph 83% 0 in 72.00 W/m2
14:28 69.4 °F 64.4 °F 29.85 in SSE 6 mph 10 mph 84% 0 in 100.00 W/m2
14:34 69.4 °F 64.7 °F 29.85 in SE 4 mph 5 mph 85% 0 in 146.00 W/m2
14:38 69.6 °F 64.9 °F 29.85 in SE 3 mph 8 mph 85% 0 in 149.00 W/m2
14:44 69.8 °F 65.1 °F 29.85 in SE 4 mph 5 mph 85% 0 in 144.00 W/m2
14:48 70 °F 65.3 °F 29.85 in SE 3 mph 5 mph 85% 0 in 155.00 W/m2
14:52 70.1 °F 65.4 °F 29.85 in South 2 mph 4 mph 85% 0 in 156.00 W/m2
14:58 70.2 °F 65.5 °F 29.84 in SSE 3 mph 4 mph 85% 0 in 109.00 W/m2
15:04 70.2 °F 65.5 °F 29.83 in South 2 mph 2 mph 85% 0 in 72.00 W/m2
15:08 70.2 °F 65.5 °F 29.83 in SSE 2 mph 4 mph 85% 0 in 58.00 W/m2
15:14 70.1 °F 65.4 °F 29.83 in SSE 2 mph 5 mph 85% 0 in 49.00 W/m2
15:18 70 °F 65.3 °F 29.83 in East 2 mph 5 mph 85% 0 in 46.00 W/m2
15:24 69.9 °F 65.2 °F 29.83 in East 1 mph 2 mph 85% 0 in 69.00 W/m2
15:28 70 °F 65.3 °F 29.82 in ESE 1 mph 2 mph 85% 0 in 132.00 W/m2
15:34 70.1 °F 65.4 °F 29.82 in SE 1 mph 1 mph 85% 0 in 141.00 W/m2
15:38 70.2 °F 65.5 °F 29.82 in SSE 1 mph 4 mph 85% 0 in 116.00 W/m2
15:44 70.4 °F 65.7 °F 29.82 in SE 1 mph 4 mph 85% 0 in 134.00 W/m2
15:48 70.5 °F 65.4 °F 29.81 in SSE 2 mph 4 mph 84% 0 in 185.00 W/m2
15:54 70.9 °F 65.5 °F 29.81 in South 3 mph 5 mph 83% 0 in 220.00 W/m2
15:58 71.2 °F 65.8 °F 29.80 in SSE 3 mph 5 mph 83% 0 in 183.00 W/m2
16:04 71.4 °F 65.6 °F 29.80 in South 3 mph 7 mph 82% 0 in 163.00 W/m2
16:08 71.5 °F 65.7 °F 29.80 in SSE 4 mph 7 mph 82% 0 in 179.00 W/m2
16:14 71.5 °F 65.7 °F 29.80 in South 3 mph 6 mph 82% 0 in 202.00 W/m2
16:18 71.6 °F 65.8 °F 29.79 in SE 3 mph 6 mph 82% 0 in 213.00 W/m2
16:24 71.9 °F 65.8 °F 29.79 in SSW 4 mph 6 mph 81% 0 in 185.00 W/m2
16:28 72 °F 65.5 °F 29.78 in SE 5 mph 7 mph 80% 0 in 174.00 W/m2
16:34 72 °F 65.5 °F 29.78 in SE 5 mph 9 mph 80% 0 in 171.00 W/m2
16:38 72.1 °F 65.2 °F 29.78 in South 6 mph 9 mph 79% 0 in 192.00 W/m2
16:44 72.3 °F 65.4 °F 29.78 in SSE 6 mph 6 mph 79% 0 in 207.00 W/m2
16:48 72.4 °F 65.5 °F 29.78 in South 5 mph 6 mph 79% 0 in 162.00 W/m2
16:54 72.5 °F 65.6 °F 29.78 in SSW 4 mph 7 mph 79% 0 in 156.00 W/m2
16:58 72.4 °F 65.2 °F 29.77 in SE 4 mph 7 mph 78% 0 in 137.00 W/m2
17:04 72.4 °F 65.2 °F 29.77 in South 5 mph 6 mph 78% 0 in 137.00 W/m2
17:08 72.4 °F 65.2 °F 29.77 in SSE 4 mph 11 mph 78% 0 in 134.00 W/m2
17:14 72.5 °F 65.2 °F 29.77 in ESE 4 mph 6 mph 78% 0 in 128.00 W/m2
17:18 72.5 °F 65.2 °F 29.77 in SSE 5 mph 6 mph 78% 0 in 120.00 W/m2
17:24 72.5 °F 65.2 °F 29.77 in SSE 4 mph 5 mph 78% 0 in 113.00 W/m2
17:28 72.6 °F 65.3 °F 29.77 in SE 4 mph 5 mph 78% 0 in 100.00 W/m2
17:34 72.6 °F 65.3 °F 29.77 in SSW 4 mph 6 mph 78% 0 in 86.00 W/m2
17:38 72.6 °F 65 °F 29.77 in ESE 5 mph 6 mph 77% 0 in 84.00 W/m2
17:44 72.8 °F 65.2 °F 29.76 in SSE 5 mph 7 mph 77% 0 in 77.00 W/m2
17:48 72.8 °F 65.2 °F 29.76 in SSE 5 mph 8 mph 77% 0 in 79.00 W/m2
17:54 72.8 °F 65.2 °F 29.76 in SSE 5 mph 6 mph 77% 0 in 77.00 W/m2
17:58 72.9 °F 65.3 °F 29.76 in South 5 mph 6 mph 77% 0 in 76.00 W/m2
18:04 73 °F 65.4 °F 29.76 in SE 6 mph 6 mph 77% 0 in 63.00 W/m2
18:08 73 °F 65.4 °F 29.76 in SSE 5 mph 7 mph 77% 0 in 72.00 W/m2
18:14 73.1 °F 65.5 °F 29.76 in SSW 4 mph 12 mph 77% 0 in 65.00 W/m2
18:18 73.1 °F 65.5 °F 29.76 in SSE 4 mph 12 mph 77% 0 in 60.00 W/m2
18:24 73 °F 65.4 °F 29.76 in SSE 4 mph 8 mph 77% 0 in 47.00 W/m2
18:28 73 °F 65.4 °F 29.76 in South 4 mph 11 mph 77% 0 in 39.00 W/m2
18:34 73 °F 65.4 °F 29.76 in SE 6 mph 6 mph 77% 0 in 32.00 W/m2
18:38 72.9 °F 65.3 °F 29.76 in SSE 5 mph 6 mph 77% 0 in 26.00 W/m2
18:44 72.9 °F 65.3 °F 29.75 in SSE 4 mph 7 mph 77% 0 in 28.00 W/m2
18:48 73 °F 65.4 °F 29.75 in South 5 mph 7 mph 77% 0 in 26.00 W/m2
18:54 73 °F 65.4 °F 29.75 in SE 5 mph 6 mph 77% 0 in 25.00 W/m2
18:58 73 °F 65.4 °F 29.75 in SSE 5 mph 6 mph 77% 0 in 25.00 W/m2
19:04 73 °F 65.4 °F 29.75 in SSE 4 mph 9 mph 77% 0 in 33.00 W/m2
19:08 73.1 °F 65.5 °F 29.74 in SE 5 mph 9 mph 77% 0 in 26.00 W/m2
19:14 73.1 °F 65.5 °F 29.75 in SSE 5 mph 5 mph 77% 0 in 23.00 W/m2
19:18 73.1 °F 65.5 °F 29.74 in South 4 mph 11 mph 77% 0 in 18.00 W/m2
19:24 73.1 °F 65.5 °F 29.74 in SSE 4 mph 4 mph 77% 0 in 14.00 W/m2
19:28 73 °F 65.4 °F 29.74 in SSE 5 mph 6 mph 77% 0 in 9.00 W/m2
19:34 73 °F 65.4 °F 29.74 in SSE 4 mph 7 mph 77% 0 in 0.00 W/m2
19:38 72.8 °F 65.5 °F 29.74 in South 4 mph 7 mph 78% 0 in 0.00 W/m2
19:44 72.8 °F 65.5 °F 29.74 in SE 4 mph 7 mph 78% 0 in 0.00 W/m2
19:48 72.8 °F 65.5 °F 29.74 in SE 5 mph 7 mph 78% 0 in 0.00 W/m2
19:54 72.7 °F 65.4 °F 29.74 in SSE 5 mph 5 mph 78% 0 in 0.00 W/m2
19:58 72.5 °F 65.6 °F 29.74 in SSE 4 mph 5 mph 79% 0 in 0.00 W/m2
Country Meadow, Clay, NY, USA
Compliments of Weather Underground - 2 mb